createdAt,value
2022-08-07T00:02:37.513Z,46.97
2022-08-07T00:04:09.632Z,47.01
2022-08-07T00:06:45.616Z,47.00
2022-08-07T00:09:21.146Z,46.92
2022-08-07T00:11:56.196Z,47.12
2022-08-07T00:14:31.480Z,47.12
2022-08-07T00:17:00.312Z,47.16
2022-08-07T00:19:34.019Z,46.96
2022-08-07T00:22:24.500Z,46.89
2022-08-07T00:25:07.351Z,46.91
2022-08-07T00:27:52.698Z,47.00
2022-08-07T00:30:27.059Z,47.08
2022-08-07T00:33:00.034Z,47.20
2022-08-07T00:35:29.632Z,46.81
2022-08-07T00:37:58.171Z,47.00
2022-08-07T00:40:36.337Z,47.08
2022-08-07T00:43:09.969Z,47.10
2022-08-07T00:45:41.316Z,47.16
2022-08-07T00:48:13.862Z,47.02
2022-08-07T00:50:50.548Z,47.15
2022-08-07T00:53:21.982Z,46.94
2022-08-07T00:56:02.707Z,47.06
2022-08-07T00:58:31.526Z,46.90
2022-08-07T01:00:59.286Z,47.26
2022-08-07T01:03:55.419Z,47.06
2022-08-07T01:06:14.168Z,47.05
2022-08-07T01:08:52.931Z,47.17
2022-08-07T01:12:23.866Z,47.05
2022-08-07T01:14:09.155Z,47.04
2022-08-07T01:16:36.959Z,47.15
2022-08-07T01:19:18.550Z,46.89
2022-08-07T01:21:49.298Z,47.15
2022-08-07T01:24:23.196Z,46.84
2022-08-07T01:26:52.675Z,47.15
2022-08-07T01:29:31.422Z,47.25
2022-08-07T01:32:05.464Z,47.18
2022-08-07T01:34:34.217Z,46.97
2022-08-07T01:37:13.610Z,47.14
2022-08-07T01:39:46.973Z,47.14
2022-08-07T01:42:40.121Z,47.08
2022-08-07T01:45:26.625Z,47.08
2022-08-07T01:48:29.654Z,47.18
2022-08-07T01:50:58.861Z,47.17
2022-08-07T01:54:09.351Z,46.96
2022-08-07T01:56:23.130Z,47.14
2022-08-07T01:59:08.321Z,47.15
2022-08-07T02:02:00.065Z,46.90
2022-08-07T02:04:39.041Z,46.89
2022-08-07T02:07:35.757Z,47.16
2022-08-07T02:10:05.603Z,47.16
2022-08-07T02:12:38.469Z,47.04
2022-08-07T02:15:11.382Z,46.77
2022-08-07T02:17:49.424Z,47.16
2022-08-07T02:20:23.371Z,47.19
2022-08-07T02:22:55.108Z,46.87
2022-08-07T02:25:32.168Z,47.21
2022-08-07T02:28:12.213Z,46.96
2022-08-07T02:30:40.670Z,46.70
2022-08-07T02:33:10.694Z,46.98
2022-08-07T02:36:30.728Z,46.74
2022-08-07T02:38:33.442Z,47.08
2022-08-07T02:41:04.324Z,47.10
2022-08-07T02:43:36.093Z,46.94
2022-08-07T02:46:07.469Z,46.97
2022-08-07T02:48:36.428Z,47.05
2022-08-07T02:51:29.235Z,46.86
2022-08-07T02:54:00.648Z,47.00
2022-08-07T02:56:31.325Z,46.87
2022-08-07T02:59:00.454Z,46.97
2022-08-07T03:01:35.700Z,46.88
2022-08-07T03:04:07.754Z,46.86
2022-08-07T03:06:42.071Z,47.01
2022-08-07T03:09:13.789Z,46.94
2022-08-07T03:11:52.662Z,46.91
2022-08-07T03:14:28.150Z,46.87
2022-08-07T03:16:56.543Z,46.87
2022-08-07T03:19:24.788Z,46.98
2022-08-07T03:21:58.729Z,46.91
2022-08-07T03:24:28.035Z,46.84
2022-08-07T03:27:01.447Z,46.82
2022-08-07T03:29:49.577Z,46.68
2022-08-07T03:32:22.677Z,46.89
2022-08-07T03:35:16.713Z,46.89
2022-08-07T03:37:46.413Z,46.99
2022-08-07T03:40:23.015Z,46.84
2022-08-07T03:42:55.214Z,46.92
2022-08-07T03:45:30.943Z,46.78
2022-08-07T03:48:10.093Z,46.87
2022-08-07T03:50:39.859Z,46.78
2022-08-07T03:53:11.116Z,46.84
2022-08-07T03:55:57.394Z,46.78
2022-08-07T03:59:05.350Z,46.84
2022-08-07T04:01:16.136Z,46.86
2022-08-07T04:03:53.233Z,46.70
2022-08-07T04:06:37.171Z,46.84
2022-08-07T04:09:15.922Z,46.84
2022-08-07T04:12:27.715Z,46.80
2022-08-07T04:14:38.074Z,46.94
2022-08-07T04:17:20.518Z,46.91
2022-08-07T04:19:51.885Z,46.87
2022-08-07T04:22:27.469Z,46.82
2022-08-07T04:25:01.153Z,46.75
2022-08-07T04:27:35.444Z,46.88
2022-08-07T04:30:13.447Z,46.80
2022-08-07T04:33:00.754Z,46.79
2022-08-07T04:35:35.195Z,46.78
2022-08-07T04:38:11.550Z,46.88
2022-08-07T04:40:52.616Z,46.80
2022-08-07T04:44:13.188Z,46.62
2022-08-07T04:46:40.042Z,46.70
2022-08-07T04:49:42.074Z,46.88
2022-08-07T04:52:25.281Z,46.89
2022-08-07T04:54:58.126Z,46.88
2022-08-07T04:58:15.791Z,46.76
2022-08-07T05:00:30.497Z,46.73
2022-08-07T05:03:17.124Z,46.76
2022-08-07T05:06:19.102Z,46.80
2022-08-07T05:09:09.648Z,46.89
2022-08-07T05:11:57.171Z,46.86
2022-08-07T05:14:56.349Z,46.50
2022-08-07T05:17:52.900Z,46.54
2022-08-07T05:20:18.059Z,46.84
2022-08-07T05:22:47.102Z,46.81
2022-08-07T05:25:25.659Z,46.89
2022-08-07T05:28:20.468Z,46.61
2022-08-07T05:30:53.381Z,46.75
2022-08-07T05:33:21.616Z,46.81
2022-08-07T05:35:53.120Z,46.80
2022-08-07T05:39:00.302Z,46.79
2022-08-07T05:41:15.805Z,46.62
2022-08-07T05:44:01.499Z,46.84
2022-08-07T05:46:37.608Z,46.81
2022-08-07T05:49:11.799Z,46.80
2022-08-07T05:51:43.546Z,46.99
2022-08-07T05:54:31.513Z,46.84
2022-08-07T05:57:05.083Z,46.96
2022-08-07T05:59:38.978Z,46.71
2022-08-07T06:02:28.599Z,46.61
2022-08-07T06:05:01.921Z,46.87
2022-08-07T06:08:14.611Z,46.85
2022-08-07T06:10:19.290Z,46.53
2022-08-07T06:12:48.842Z,47.06
2022-08-07T06:15:19.697Z,46.89
2022-08-07T06:17:53.567Z,46.86
2022-08-07T06:20:50.011Z,46.99
2022-08-07T06:23:46.068Z,46.65
2022-08-07T06:26:00.477Z,46.64
2022-08-07T06:28:28.533Z,46.79
2022-08-07T06:30:58.195Z,46.62
2022-08-07T06:33:27.509Z,46.92
2022-08-07T06:36:11.861Z,46.84
2022-08-07T06:40:12.855Z,46.83
2022-08-07T06:42:02.605Z,46.65
2022-08-07T06:44:50.956Z,46.64
2022-08-07T06:47:19.572Z,46.67
2022-08-07T06:49:52.395Z,46.75
2022-08-07T06:52:31.705Z,46.82
2022-08-07T06:55:33.375Z,47.02
2022-08-07T06:58:04.706Z,46.79
2022-08-07T07:00:39.249Z,47.01
2022-08-07T07:03:13.577Z,46.65
2022-08-07T07:06:05.121Z,46.95
2022-08-07T07:08:31.129Z,47.09
2022-08-07T07:11:01.380Z,47.21
2022-08-07T07:13:58.511Z,47.16
2022-08-07T07:16:31.036Z,47.09
2022-08-07T07:19:11.164Z,47.07
2022-08-07T07:22:04.761Z,47.12
2022-08-07T07:24:43.008Z,47.06
2022-08-07T07:27:26.730Z,47.20
2022-08-07T07:30:10.078Z,47.19
2022-08-07T07:32:40.630Z,47.10
2022-08-07T07:35:11.147Z,47.25
2022-08-07T07:37:49.528Z,47.15
2022-08-07T07:40:21.197Z,47.45
2022-08-07T07:42:54.473Z,47.25
2022-08-07T07:46:53.525Z,47.43
2022-08-07T07:48:35.324Z,47.32
2022-08-07T07:51:08.053Z,47.21
2022-08-07T07:53:51.824Z,47.21
2022-08-07T07:56:30.245Z,47.31
2022-08-07T07:58:59.799Z,47.43
2022-08-07T08:02:03.992Z,47.50
2022-08-07T08:04:16.830Z,47.50
2022-08-07T08:06:50.779Z,47.43
2022-08-07T08:09:20.598Z,47.64
2022-08-07T08:12:02.676Z,47.52
2022-08-07T08:14:36.608Z,47.55
2022-08-07T08:17:56.118Z,47.67
2022-08-07T08:20:20.037Z,47.58
2022-08-07T08:23:11.492Z,47.68
2022-08-07T08:26:06.882Z,47.51
2022-08-07T08:28:39.162Z,47.59
2022-08-07T08:31:15.991Z,47.62
2022-08-07T08:33:49.764Z,47.62
2022-08-07T08:36:25.744Z,47.71
2022-08-07T08:38:57.580Z,47.91
2022-08-07T08:41:31.376Z,47.85
2022-08-07T08:44:29.452Z,47.83
2022-08-07T08:46:56.795Z,48.06
2022-08-07T08:50:02.167Z,47.67
2022-08-07T08:52:30.332Z,47.83
2022-08-07T08:55:07.823Z,47.80
2022-08-07T08:57:37.603Z,47.85
2022-08-07T09:00:09.217Z,48.13
2022-08-07T09:02:37.445Z,48.10
2022-08-07T09:05:31.966Z,48.26
2022-08-07T09:08:17.731Z,48.05
2022-08-07T09:10:54.346Z,48.02
2022-08-07T09:13:37.741Z,47.94
2022-08-07T09:16:26.604Z,48.30
2022-08-07T09:19:53.375Z,48.14
2022-08-07T09:22:36.771Z,48.14
2022-08-07T09:25:01.640Z,48.20
2022-08-07T09:27:59.641Z,47.98
2022-08-07T09:30:29.680Z,48.05
2022-08-07T09:33:24.482Z,48.32
2022-08-07T09:36:09.525Z,48.05
2022-08-07T09:38:43.321Z,48.23
2022-08-07T09:41:43.167Z,48.29
2022-08-07T09:47:56.157Z,48.42
2022-08-07T09:50:48.513Z,48.38
2022-08-07T09:53:22.541Z,48.55
2022-08-07T09:56:05.242Z,48.49
2022-08-07T09:58:51.454Z,48.42
2022-08-07T10:01:51.843Z,48.45
2022-08-07T10:04:38.081Z,48.24
2022-08-07T10:07:25.969Z,48.67
2022-08-07T10:10:12.129Z,48.30
2022-08-07T10:13:01.236Z,48.48
2022-08-07T10:15:30.760Z,48.43
2022-08-07T10:18:19.958Z,48.77
2022-08-07T10:21:05.421Z,48.73
2022-08-07T10:24:06.552Z,48.39
2022-08-07T10:26:51.807Z,48.84
2022-08-07T10:29:26.460Z,48.51
2022-08-07T10:31:58.081Z,48.65
2022-08-07T10:34:42.793Z,48.81
2022-08-07T10:38:00.162Z,48.74
2022-08-07T10:40:42.334Z,48.83
2022-08-07T10:43:34.266Z,48.72
2022-08-07T10:46:06.595Z,48.67
2022-08-07T10:48:39.971Z,48.99
2022-08-07T10:51:16.900Z,48.71
2022-08-07T10:54:00.253Z,48.80
2022-08-07T10:56:46.171Z,48.90
2022-08-07T10:59:36.987Z,48.82
2022-08-07T11:02:12.475Z,48.62
2022-08-07T11:05:13.047Z,48.78
2022-08-07T11:08:02.656Z,48.77
2022-08-07T11:10:34.918Z,48.76
2022-08-07T11:14:41.772Z,48.57
2022-08-07T11:16:02.591Z,48.49
2022-08-07T11:18:51.034Z,48.49
2022-08-07T11:21:35.146Z,48.83
2022-08-07T11:24:22.380Z,48.56
2022-08-07T11:27:06.434Z,48.90
2022-08-07T11:29:48.318Z,48.87
2022-08-07T11:32:29.696Z,48.89
2022-08-07T11:35:09.414Z,48.80
2022-08-07T11:37:58.497Z,48.78
2022-08-07T11:40:57.961Z,48.84
2022-08-07T11:44:10.658Z,48.66
2022-08-07T11:46:43.802Z,48.92
2022-08-07T11:49:51.539Z,48.72
2022-08-07T11:52:01.021Z,48.94
2022-08-07T11:54:46.342Z,48.89
2022-08-07T11:57:58.111Z,48.74
2022-08-07T12:00:19.358Z,48.59
2022-08-07T12:02:56.061Z,48.56
2022-08-07T12:05:47.359Z,48.81
2022-08-07T12:08:25.838Z,48.71
2022-08-07T12:11:20.732Z,48.76
2022-08-07T12:14:03.795Z,48.47
2022-08-07T12:16:34.493Z,48.58
2022-08-07T12:19:21.256Z,48.69
2022-08-07T12:22:37.406Z,48.63
2022-08-07T12:26:02.978Z,48.76
2022-08-07T12:28:12.712Z,48.67
2022-08-07T12:30:46.939Z,48.52
2022-08-07T12:33:28.279Z,48.86
2022-08-07T12:36:10.969Z,48.74
2022-08-07T12:38:43.249Z,48.84
2022-08-07T12:41:15.090Z,48.68
2022-08-07T12:44:04.621Z,48.68
2022-08-07T12:46:34.610Z,48.75
2022-08-07T12:49:09.914Z,48.78
2022-08-07T12:52:13.785Z,48.68
2022-08-07T12:55:01.515Z,48.60
2022-08-07T12:57:59.168Z,48.65
2022-08-07T13:00:26.092Z,48.39
2022-08-07T13:03:01.293Z,48.49
2022-08-07T13:06:03.197Z,48.57
2022-08-07T13:08:25.708Z,48.42
2022-08-07T13:11:03.096Z,48.50
2022-08-07T13:13:47.201Z,48.49
2022-08-07T13:16:36.613Z,48.48
2022-08-07T13:19:03.960Z,48.46
2022-08-07T13:21:57.715Z,48.62
2022-08-07T13:24:30.443Z,48.45
2022-08-07T13:27:05.871Z,48.27
2022-08-07T13:29:34.916Z,48.52
2022-08-07T13:32:23.704Z,48.34
2022-08-07T13:34:57.610Z,48.42
2022-08-07T13:37:30.499Z,48.17
2022-08-07T13:40:36.760Z,48.40
2022-08-07T13:43:11.933Z,48.42
2022-08-07T13:46:20.949Z,48.42
2022-08-07T13:48:34.440Z,48.19
2022-08-07T13:51:28.083Z,48.07
2022-08-07T13:54:00.181Z,48.05
2022-08-07T13:56:36.238Z,48.05
2022-08-07T13:59:12.135Z,48.26
2022-08-07T14:01:51.449Z,48.30
2022-08-07T14:04:35.433Z,48.40
2022-08-07T14:07:09.471Z,48.39
2022-08-07T14:10:02.956Z,48.29
2022-08-07T14:12:31.608Z,48.47
2022-08-07T14:15:05.839Z,48.42
2022-08-07T14:18:13.114Z,48.20
2022-08-07T14:20:43.229Z,48.43
2022-08-07T14:23:58.850Z,48.28
2022-08-07T14:26:28.399Z,48.40
2022-08-07T14:29:05.950Z,48.29
2022-08-07T14:31:56.029Z,48.44
2022-08-07T14:34:29.705Z,48.39
2022-08-07T14:37:01.809Z,48.26
2022-08-07T14:40:18.045Z,48.46
2022-08-07T14:42:23.162Z,48.02
2022-08-07T14:44:53.509Z,48.07
2022-08-07T14:47:21.283Z,48.09
2022-08-07T14:49:58.497Z,48.38
2022-08-07T14:52:28.826Z,48.23
2022-08-07T14:54:58.560Z,48.36
2022-08-07T14:57:54.394Z,48.30
2022-08-07T15:03:16.485Z,48.20
2022-08-07T15:05:55.284Z,48.36
2022-08-07T15:11:53.412Z,48.37
2022-08-07T15:14:20.158Z,48.25
2022-08-07T15:16:55.009Z,48.16
2022-08-07T15:20:30.385Z,48.32
2022-08-07T15:25:18.431Z,48.20
2022-08-07T15:28:02.019Z,48.07
2022-08-07T15:30:59.456Z,47.98
2022-08-07T15:33:33.394Z,48.23
2022-08-07T15:36:05.426Z,47.88
2022-08-07T15:38:58.972Z,47.99
2022-08-07T15:42:42.213Z,48.20
2022-08-07T15:44:12.414Z,48.02
2022-08-07T15:50:03.864Z,48.06
2022-08-07T15:52:29.615Z,48.12
2022-08-07T15:55:03.821Z,47.93
2022-08-07T15:57:39.989Z,48.13
2022-08-07T16:00:32.004Z,48.03
2022-08-07T16:03:21.520Z,48.04
2022-08-07T16:05:58.984Z,47.80
2022-08-07T16:08:37.902Z,47.93
2022-08-07T16:11:26.251Z,48.01
2022-08-07T16:14:09.417Z,48.16
2022-08-07T16:16:56.858Z,47.79
2022-08-07T16:19:43.204Z,47.88
2022-08-07T16:22:54.927Z,47.91
2022-08-07T16:25:54.340Z,48.04
2022-08-07T16:30:06.617Z,48.06
2022-08-07T16:31:57.420Z,48.05
2022-08-07T16:34:34.880Z,47.85
2022-08-07T16:38:06.452Z,48.13
2022-08-07T16:40:28.382Z,48.07
2022-08-07T16:43:03.405Z,47.73
2022-08-07T16:46:47.167Z,47.94
2022-08-07T16:48:34.315Z,47.90
2022-08-07T16:51:51.788Z,47.98
2022-08-07T16:54:09.002Z,47.96
2022-08-07T16:56:38.842Z,48.09
2022-08-07T16:59:18.053Z,48.12
2022-08-07T17:01:59.503Z,47.98
2022-08-07T17:04:30.511Z,48.04
2022-08-07T17:07:17.948Z,47.84
2022-08-07T17:10:07.426Z,48.00
2022-08-07T17:12:47.201Z,47.71
2022-08-07T17:15:15.605Z,48.17
2022-08-07T17:17:49.149Z,48.07
2022-08-07T17:20:22.918Z,48.03
2022-08-07T17:23:14.786Z,48.09
2022-08-07T17:25:52.294Z,47.80
2022-08-07T17:28:24.608Z,48.15
2022-08-07T17:31:16.418Z,48.14
2022-08-07T17:34:17.950Z,48.05
2022-08-07T17:36:57.936Z,48.05
2022-08-07T17:39:58.908Z,48.20
2022-08-07T17:42:28.255Z,48.03
2022-08-07T17:44:58.391Z,48.13
2022-08-07T17:47:42.159Z,48.21
2022-08-07T17:50:18.982Z,47.97
2022-08-07T17:52:52.302Z,47.78
2022-08-07T17:56:00.112Z,47.90
2022-08-07T17:58:30.563Z,47.86
2022-08-07T18:00:59.522Z,48.07
2022-08-07T18:04:03.838Z,48.07
2022-08-07T18:06:38.155Z,47.71
2022-08-07T18:09:08.747Z,48.11
2022-08-07T18:12:16.451Z,48.11
2022-08-07T18:15:08.761Z,47.81
2022-08-07T18:18:46.012Z,47.72
2022-08-07T18:21:06.940Z,47.78
2022-08-07T18:23:43.733Z,47.97
2022-08-07T18:26:20.168Z,47.77
2022-08-07T18:30:08.343Z,47.97
2022-08-07T18:32:08.456Z,48.13
2022-08-07T18:35:08.296Z,47.78
2022-08-07T18:38:56.079Z,48.00
2022-08-07T18:40:43.076Z,47.77
2022-08-07T18:43:37.007Z,47.97
2022-08-07T18:46:26.776Z,48.03
2022-08-07T18:50:32.560Z,47.71
2022-08-07T18:52:37.581Z,48.09
2022-08-07T18:54:50.954Z,47.95
2022-08-07T18:57:36.926Z,47.81
2022-08-07T19:00:04.875Z,47.98
2022-08-07T19:02:55.952Z,48.14
2022-08-07T19:06:04.141Z,48.01
2022-08-07T19:08:26.490Z,47.96
2022-08-07T19:10:59.580Z,48.16
2022-08-07T19:13:35.701Z,47.79
2022-08-07T19:17:05.644Z,48.11
2022-08-07T19:19:08.343Z,47.95
2022-08-07T19:21:53.572Z,47.93
2022-08-07T19:24:44.547Z,47.96
2022-08-07T19:28:56.895Z,47.68
2022-08-07T19:31:04.784Z,47.95
2022-08-07T19:32:52.522Z,47.98
2022-08-07T19:35:33.308Z,47.93
2022-08-07T19:38:02.615Z,47.99
2022-08-07T19:40:36.597Z,47.92
2022-08-07T19:43:21.200Z,47.76
2022-08-07T19:46:07.085Z,47.70
2022-08-07T19:48:43.016Z,47.91
2022-08-07T19:51:20.053Z,47.79
2022-08-07T19:54:29.776Z,47.93
2022-08-07T19:57:52.349Z,47.94
2022-08-07T19:59:42.149Z,48.00
2022-08-07T20:02:18.951Z,47.92
2022-08-07T20:04:49.341Z,48.08
2022-08-07T20:07:23.801Z,47.75
2022-08-07T20:10:37.168Z,47.76
2022-08-07T20:12:53.491Z,48.07
2022-08-07T20:15:24.663Z,48.10
2022-08-07T20:18:04.322Z,48.20
2022-08-07T20:20:33.201Z,47.73
2022-08-07T20:23:22.917Z,47.79
2022-08-07T20:25:51.150Z,47.81
2022-08-07T20:28:20.801Z,48.08
2022-08-07T20:30:57.257Z,47.86
2022-08-07T20:33:38.027Z,47.97
2022-08-07T20:36:06.985Z,47.98
2022-08-07T20:38:35.907Z,47.98
2022-08-07T20:41:25.931Z,48.00
2022-08-07T20:43:57.479Z,47.81
2022-08-07T20:46:33.421Z,47.81
2022-08-07T20:50:00.247Z,47.72
2022-08-07T20:51:58.397Z,47.78
2022-08-07T20:54:29.845Z,48.03
2022-08-07T20:57:03.241Z,47.73
2022-08-07T21:00:05.541Z,48.04
2022-08-07T21:02:41.463Z,48.00
2022-08-07T21:05:43.054Z,48.06
2022-08-07T21:08:14.457Z,48.04
2022-08-07T21:10:43.562Z,48.08
2022-08-07T21:13:12.539Z,47.85
2022-08-07T21:15:48.190Z,47.76
2022-08-07T21:18:33.506Z,47.76
2022-08-07T21:21:01.661Z,48.18
2022-08-07T21:23:49.466Z,47.86
2022-08-07T21:26:21.902Z,48.05
2022-08-07T21:28:54.887Z,47.96
2022-08-07T21:31:49.216Z,47.81
2022-08-07T21:34:35.489Z,48.13
2022-08-07T21:37:22.644Z,48.09
2022-08-07T21:40:05.353Z,48.04
2022-08-07T21:42:54.102Z,48.02
2022-08-07T21:46:10.179Z,48.10
2022-08-07T21:48:08.584Z,48.25
2022-08-07T21:50:59.108Z,48.10
2022-08-07T21:53:32.756Z,48.04
2022-08-07T21:56:37.755Z,48.03
2022-08-07T21:59:16.253Z,48.08
2022-08-07T22:02:11.450Z,47.86
2022-08-07T22:04:53.939Z,48.11
2022-08-07T22:07:31.462Z,48.10
2022-08-07T22:10:04.305Z,47.87
2022-08-07T22:12:59.433Z,48.06
2022-08-07T22:16:43.660Z,47.96
2022-08-07T22:18:22.607Z,48.21
2022-08-07T22:20:56.018Z,47.95
2022-08-07T22:23:45.151Z,47.99
2022-08-07T22:26:15.147Z,48.11
2022-08-07T22:28:48.241Z,48.19
2022-08-07T22:31:45.375Z,47.97
2022-08-07T22:34:15.133Z,48.26
2022-08-07T22:36:42.275Z,47.86
2022-08-07T22:39:23.319Z,47.87
2022-08-07T22:42:03.033Z,47.85
2022-08-07T22:44:58.651Z,47.97
2022-08-07T22:47:26.616Z,48.04
2022-08-07T22:50:03.350Z,48.17
2022-08-07T22:52:43.370Z,48.17
2022-08-07T22:55:22.680Z,48.24
2022-08-07T22:58:00.619Z,48.31
2022-08-07T23:00:34.645Z,48.00
2022-08-07T23:03:09.385Z,48.33
2022-08-07T23:06:09.778Z,48.28
2022-08-07T23:08:34.332Z,48.33
2022-08-07T23:11:13.027Z,47.98
2022-08-07T23:14:15.596Z,48.29
2022-08-07T23:16:55.474Z,47.94
2022-08-07T23:20:03.304Z,48.18
2022-08-07T23:22:36.558Z,48.02
2022-08-07T23:25:28.683Z,48.16
2022-08-07T23:28:22.072Z,48.45
2022-08-07T23:31:06.375Z,48.21
2022-08-07T23:34:34.063Z,48.06
2022-08-07T23:36:33.492Z,48.15
2022-08-07T23:39:41.161Z,48.11
2022-08-07T23:42:15.677Z,47.96
2022-08-07T23:44:54.913Z,48.28
2022-08-07T23:47:42.471Z,48.29
2022-08-07T23:50:24.239Z,48.23
2022-08-07T23:53:01.511Z,48.21
2022-08-07T23:55:53.197Z,48.29
2022-08-07T23:58:32.117Z,48.01
